sensor_id;sensor_type;location;lat;lon;timestamp;pressure;altitude;pressure_sealevel;temperature;humidity
65718;BME280;52445;52.466;-1.016;2023-04-02T00:00:15;100524.28;;;7.10;77.96
65718;BME280;52445;52.466;-1.016;2023-04-02T00:03:03;100526.84;;;7.10;78.23
65718;BME280;52445;52.466;-1.016;2023-04-02T00:05:46;100533.72;;;7.11;77.28
65718;BME280;52445;52.466;-1.016;2023-04-02T00:08:22;100538.88;;;7.11;78.17
65718;BME280;52445;52.466;-1.016;2023-04-02T00:10:53;100537.97;;;7.09;77.91
65718;BME280;52445;52.466;-1.016;2023-04-02T00:16:07;100545.69;;;7.09;77.49
65718;BME280;52445;52.466;-1.016;2023-04-02T00:18:42;100547.41;;;7.09;77.68
65718;BME280;52445;52.466;-1.016;2023-04-02T00:23:54;100557.69;;;7.07;77.86
65718;BME280;52445;52.466;-1.016;2023-04-02T00:29:04;100557.69;;;7.07;78.84
65718;BME280;52445;52.466;-1.016;2023-04-02T00:31:33;100561.06;;;7.03;78.47
65718;BME280;52445;52.466;-1.016;2023-04-02T00:34:08;100561.06;;;7.03;77.79
65718;BME280;52445;52.466;-1.016;2023-04-02T00:36:38;100559.25;;;6.99;79.30
65718;BME280;52445;52.466;-1.016;2023-04-02T00:39:13;100560.91;;;6.97;78.30
65718;BME280;52445;52.466;-1.016;2023-04-02T00:41:42;100564.38;;;6.97;78.84
65718;BME280;52445;52.466;-1.016;2023-04-02T00:44:15;100568.56;;;6.93;78.50
65718;BME280;52445;52.466;-1.016;2023-04-02T00:46:49;100568.59;;;6.95;78.25
65718;BME280;52445;52.466;-1.016;2023-04-02T00:49:26;100580.53;;;6.90;79.29
65718;BME280;52445;52.466;-1.016;2023-04-02T00:52:02;100585.72;;;6.91;78.76
65718;BME280;52445;52.466;-1.016;2023-04-02T00:54:36;100594.25;;;6.89;78.41
65718;BME280;52445;52.466;-1.016;2023-04-02T00:57:13;100595.03;;;6.86;78.59
65718;BME280;52445;52.466;-1.016;2023-04-02T00:59:57;100601.09;;;6.88;78.42
65718;BME280;52445;52.466;-1.016;2023-04-02T01:02:30;100603.66;;;6.88;79.52
65718;BME280;52445;52.466;-1.016;2023-04-02T01:05:01;100607.94;;;6.88;78.44
65718;BME280;52445;52.466;-1.016;2023-04-02T01:24:31;100621.63;;;6.85;79.66
65718;BME280;52445;52.466;-1.016;2023-04-02T01:27:04;100618.19;;;6.85;80.00
65718;BME280;52445;52.466;-1.016;2023-04-02T01:29:52;100629.28;;;6.82;79.05
65718;BME280;52445;52.466;-1.016;2023-04-02T01:32:21;100640.44;;;6.82;79.77
65718;BME280;52445;52.466;-1.016;2023-04-02T01:34:50;100641.28;;;6.81;78.95
65718;BME280;52445;52.466;-1.016;2023-04-02T01:45:24;100640.38;;;6.79;78.90
65718;BME280;52445;52.466;-1.016;2023-04-02T01:47:51;100646.41;;;6.80;79.97
65718;BME280;52445;52.466;-1.016;2023-04-02T01:52:56;100646.41;;;6.80;79.75
65718;BME280;52445;52.466;-1.016;2023-04-02T01:55:31;100648.13;;;6.81;79.52
65718;BME280;52445;52.466;-1.016;2023-04-02T01:57:59;100652.44;;;6.82;79.21
65718;BME280;52445;52.466;-1.016;2023-04-02T02:00:28;100654.97;;;6.80;79.10
65718;BME280;52445;52.466;-1.016;2023-04-02T02:02:55;100660.16;;;6.82;80.03
65718;BME280;52445;52.466;-1.016;2023-04-02T02:05:22;100656.72;;;6.80;80.05
65718;BME280;52445;52.466;-1.016;2023-04-02T02:07:50;100661.84;;;6.80;80.15
65718;BME280;52445;52.466;-1.016;2023-04-02T02:10:23;100667.00;;;6.80;79.62
65718;BME280;52445;52.466;-1.016;2023-04-02T02:12:53;100670.47;;;6.82;79.63
65718;BME280;52445;52.466;-1.016;2023-04-02T02:15:21;100678.22;;;6.84;79.39
65718;BME280;52445;52.466;-1.016;2023-04-02T02:17:49;100681.69;;;6.84;80.16
65718;BME280;52445;52.466;-1.016;2023-04-02T02:20:19;100679.13;;;6.84;78.69
65718;BME280;52445;52.466;-1.016;2023-04-02T02:22:48;100684.25;;;6.84;80.02
65718;BME280;52445;52.466;-1.016;2023-04-02T02:25:19;100682.56;;;6.85;79.53
65718;BME280;52445;52.466;-1.016;2023-04-02T02:28:08;100686.00;;;6.85;79.30
65718;BME280;52445;52.466;-1.016;2023-04-02T02:35:59;100692.09;;;6.89;78.85
65718;BME280;52445;52.466;-1.016;2023-04-02T02:38:38;100698.94;;;6.88;79.21
65718;BME280;52445;52.466;-1.016;2023-04-02T02:46:46;100708.41;;;6.89;79.01
65718;BME280;52445;52.466;-1.016;2023-04-02T02:49:18;100715.31;;;6.90;79.65
65718;BME280;52445;52.466;-1.016;2023-04-02T02:54:48;100722.19;;;6.91;78.83
65718;BME280;52445;52.466;-1.016;2023-04-02T02:57:22;100716.16;;;6.91;80.03
65718;BME280;52445;52.466;-1.016;2023-04-02T02:59:52;100720.47;;;6.92;78.85
65718;BME280;52445;52.466;-1.016;2023-04-02T03:02:20;100717.06;;;6.91;79.73
65718;BME280;52445;52.466;-1.016;2023-04-02T03:04:50;100730.78;;;6.90;79.94
65718;BME280;52445;52.466;-1.016;2023-04-02T03:07:20;100728.19;;;6.90;79.98
65718;BME280;52445;52.466;-1.016;2023-04-02T03:10:05;100734.06;;;6.85;78.69
65718;BME280;52445;52.466;-1.016;2023-04-02T03:18:07;100742.66;;;6.85;79.19
65718;BME280;52445;52.466;-1.016;2023-04-02T03:23:36;100762.44;;;7.25;77.94
65718;BME280;52445;52.466;-1.016;2023-04-02T03:29:03;100770.25;;;6.91;79.31
65718;BME280;52445;52.466;-1.016;2023-04-02T03:31:37;100773.63;;;6.88;78.83
65718;BME280;52445;52.466;-1.016;2023-04-02T03:37:06;100787.22;;;6.82;80.09
65718;BME280;52445;52.466;-1.016;2023-04-02T03:39:40;100794.06;;;6.82;80.25
65718;BME280;52445;52.466;-1.016;2023-04-02T03:44:50;100795.63;;;6.75;79.70
65718;BME280;52445;52.466;-1.016;2023-04-02T03:47:30;100793.94;;;6.76;79.90
65718;BME280;52445;52.466;-1.016;2023-04-02T03:50:04;100800.72;;;6.74;79.57
65718;BME280;52445;52.466;-1.016;2023-04-02T03:52:35;100802.50;;;6.75;78.70
65718;BME280;52445;52.466;-1.016;2023-04-02T03:55:10;100806.75;;;6.74;78.78
65718;BME280;52445;52.466;-1.016;2023-04-02T04:00:24;100817.06;;;6.74;78.78
65718;BME280;52445;52.466;-1.016;2023-04-02T04:02:58;100826.47;;;6.74;78.84
65718;BME280;52445;52.466;-1.016;2023-04-02T04:05:30;100820.53;;;6.75;79.31
65718;BME280;52445;52.466;-1.016;2023-04-02T04:08:02;100828.25;;;6.75;78.20
65718;BME280;52445;52.466;-1.016;2023-04-02T04:10:31;100829.91;;;6.73;79.74
65718;BME280;52445;52.466;-1.016;2023-04-02T04:13:08;100829.81;;;6.69;78.81
65718;BME280;52445;52.466;-1.016;2023-04-02T04:21:04;100837.44;;;6.66;78.59
65718;BME280;52445;52.466;-1.016;2023-04-02T04:23:38;100844.31;;;6.66;78.36
65718;BME280;52445;52.466;-1.016;2023-04-02T04:26:25;100847.66;;;6.62;78.46
65718;BME280;52445;52.466;-1.016;2023-04-02T04:29:50;100851.97;;;6.63;78.66
65718;BME280;52445;52.466;-1.016;2023-04-02T04:31:49;100851.91;;;6.61;78.24
65718;BME280;52445;52.466;-1.016;2023-04-02T04:34:20;100857.91;;;6.60;79.34
65718;BME280;52445;52.466;-1.016;2023-04-02T04:36:54;100864.59;;;6.55;79.38
65718;BME280;52445;52.466;-1.016;2023-04-02T04:39:29;100859.53;;;6.58;78.99
65718;BME280;52445;52.466;-1.016;2023-04-02T04:42:02;100874.09;;;6.56;78.84
65718;BME280;52445;52.466;-1.016;2023-04-02T04:44:44;100869.75;;;6.55;79.19
65718;BME280;52445;52.466;-1.016;2023-04-02T04:49:56;100879.16;;;6.53;80.00
65718;BME280;52445;52.466;-1.016;2023-04-02T04:52:27;100883.47;;;6.54;78.85
65718;BME280;52445;52.466;-1.016;2023-04-02T04:54:54;100889.44;;;6.53;78.26
65718;BME280;52445;52.466;-1.016;2023-04-02T05:02:49;100902.28;;;6.51;78.06
65718;BME280;52445;52.466;-1.016;2023-04-02T05:05:19;100912.53;;;6.50;78.42
65718;BME280;52445;52.466;-1.016;2023-04-02T05:07:50;100908.97;;;6.45;77.96
65718;BME280;52445;52.466;-1.016;2023-04-02T05:10:26;100912.38;;;6.45;77.86
65718;BME280;52445;52.466;-1.016;2023-04-02T05:15:41;100927.78;;;6.43;78.86
65718;BME280;52445;52.466;-1.016;2023-04-02T05:26:42;100939.94;;;6.80;77.74
65718;BME280;52445;52.466;-1.016;2023-04-02T05:29:19;100941.56;;;6.46;78.06
65718;BME280;52445;52.466;-1.016;2023-04-02T05:31:57;100939.88;;;6.46;78.83
65718;BME280;52445;52.466;-1.016;2023-04-02T05:34:31;100942.41;;;6.45;78.69
65718;BME280;52445;52.466;-1.016;2023-04-02T05:36:59;100950.91;;;6.42;77.50
65718;BME280;52445;52.466;-1.016;2023-04-02T05:39:27;100956.09;;;6.43;77.32
65718;BME280;52445;52.466;-1.016;2023-04-02T05:42:15;100964.53;;;6.39;78.43
65718;BME280;52445;52.466;-1.016;2023-04-02T05:45:03;100970.56;;;6.40;78.56
65718;BME280;52445;52.466;-1.016;2023-04-02T05:47:32;100976.50;;;6.37;78.18
65718;BME280;52445;52.466;-1.016;2023-04-02T05:52:45;100985.81;;;6.32;77.89
65718;BME280;52445;52.466;-1.016;2023-04-02T05:58:01;100994.22;;;6.28;76.78
65718;BME280;52445;52.466;-1.016;2023-04-02T06:03:55;100999.16;;;6.20;77.25
65718;BME280;52445;52.466;-1.016;2023-04-02T06:06:32;101007.66;;;6.17;77.37
65718;BME280;52445;52.466;-1.016;2023-04-02T06:09:08;101017.13;;;6.19;77.49
65718;BME280;52445;52.466;-1.016;2023-04-02T06:11:40;101025.47;;;6.11;75.94
65718;BME280;52445;52.466;-1.016;2023-04-02T06:14:12;101038.22;;;6.08;76.38
65718;BME280;52445;52.466;-1.016;2023-04-02T06:16:40;101037.50;;;6.12;75.68
65718;BME280;52445;52.466;-1.016;2023-04-02T06:19:15;101046.03;;;6.11;77.29
65718;BME280;52445;52.466;-1.016;2023-04-02T06:21:45;101044.19;;;6.07;76.98
65718;BME280;52445;52.466;-1.016;2023-04-02T06:24:19;101047.72;;;6.09;75.80
65718;BME280;52445;52.466;-1.016;2023-04-02T06:26:52;101046.81;;;6.09;75.75
65718;BME280;52445;52.466;-1.016;2023-04-02T06:29:31;101043.38;;;6.08;75.12
65718;BME280;52445;52.466;-1.016;2023-04-02T06:32:05;101046.88;;;6.10;76.97
65718;BME280;52445;52.466;-1.016;2023-04-02T06:34:33;101056.22;;;6.08;76.03
65718;BME280;52445;52.466;-1.016;2023-04-02T06:37:13;101051.81;;;6.04;75.73
65718;BME280;52445;52.466;-1.016;2023-04-02T06:39:41;101053.59;;;6.05;75.73
65718;BME280;52445;52.466;-1.016;2023-04-02T06:44:48;101058.75;;;6.07;75.44
65718;BME280;52445;52.466;-1.016;2023-04-02T06:52:47;101078.66;;;6.12;76.39
65718;BME280;52445;52.466;-1.016;2023-04-02T06:55:26;101077.78;;;6.12;76.35
65718;BME280;52445;52.466;-1.016;2023-04-02T06:57:55;101085.56;;;6.13;75.32
65718;BME280;52445;52.466;-1.016;2023-04-02T07:00:41;101077.94;;;6.16;76.15
65718;BME280;52445;52.466;-1.016;2023-04-02T07:03:27;101078.75;;;6.15;75.80
65718;BME280;52445;52.466;-1.016;2023-04-02T07:05:54;101089.09;;;6.17;75.53
65718;BME280;52445;52.466;-1.016;2023-04-02T07:08:22;101092.72;;;6.22;75.33
65718;BME280;52445;52.466;-1.016;2023-04-02T07:10:48;101092.66;;;6.21;75.53
65718;BME280;52445;52.466;-1.016;2023-04-02T07:13:21;101092.66;;;6.21;75.20
65718;BME280;52445;52.466;-1.016;2023-04-02T07:15:50;101106.44;;;6.23;75.72
65718;BME280;52445;52.466;-1.016;2023-04-02T07:20:57;101112.47;;;6.23;75.63
65718;BME280;52445;52.466;-1.016;2023-04-02T07:23:24;101109.06;;;6.24;75.62
65718;BME280;52445;52.466;-1.016;2023-04-02T07:25:53;101120.31;;;6.28;74.73
65718;BME280;52445;52.466;-1.016;2023-04-02T07:28:20;101122.06;;;6.29;75.59
65718;BME280;52445;52.466;-1.016;2023-04-02T07:30:49;101128.13;;;6.31;74.70
65718;BME280;52445;52.466;-1.016;2023-04-02T07:33:19;101135.94;;;6.34;73.49
65718;BME280;52445;52.466;-1.016;2023-04-02T07:35:46;101143.50;;;6.29;75.12
65718;BME280;52445;52.466;-1.016;2023-04-02T07:38:13;101144.50;;;6.33;74.98
65718;BME280;52445;52.466;-1.016;2023-04-02T07:40:40;101141.22;;;6.37;74.99
65718;BME280;52445;52.466;-1.016;2023-04-02T07:43:07;101145.53;;;6.38;73.04
65718;BME280;52445;52.466;-1.016;2023-04-02T07:45:34;101146.47;;;6.40;73.15
65718;BME280;52445;52.466;-1.016;2023-04-02T07:50:41;101158.38;;;6.38;72.76
65718;BME280;52445;52.466;-1.016;2023-04-02T07:53:24;101152.47;;;6.41;72.74
65718;BME280;52445;52.466;-1.016;2023-04-02T07:55:53;101157.75;;;6.46;73.01
65718;BME280;52445;52.466;-1.016;2023-04-02T07:58:19;101158.78;;;6.51;74.18
65718;BME280;52445;52.466;-1.016;2023-04-02T08:00:46;101172.78;;;6.59;74.11
65718;BME280;52445;52.466;-1.016;2023-04-02T08:03:12;101169.50;;;6.63;72.89
65718;BME280;52445;52.466;-1.016;2023-04-02T08:05:39;101174.69;;;6.66;74.27
65718;BME280;52445;52.466;-1.016;2023-04-02T08:08:06;101183.38;;;6.68;72.28
65718;BME280;52445;52.466;-1.016;2023-04-02T08:10:33;101179.13;;;6.71;72.63
65718;BME280;52445;52.466;-1.016;2023-04-02T08:12:59;101186.84;;;6.71;72.84
65718;BME280;52445;52.466;-1.016;2023-04-02T08:15:26;101192.09;;;6.74;72.96
65718;BME280;52445;52.466;-1.016;2023-04-02T08:17:52;101183.63;;;6.78;71.86
65718;BME280;52445;52.466;-1.016;2023-04-02T08:20:21;101182.16;;;6.85;71.63
65718;BME280;52445;52.466;-1.016;2023-04-02T08:22:49;101185.78;;;6.91;72.22
65718;BME280;52445;52.466;-1.016;2023-04-02T08:25:16;101194.53;;;6.97;71.93
65718;BME280;52445;52.466;-1.016;2023-04-02T08:27:46;101201.41;;;6.98;72.00
65718;BME280;52445;52.466;-1.016;2023-04-02T08:30:13;101209.34;;;7.04;72.06
65718;BME280;52445;52.466;-1.016;2023-04-02T08:32:40;101205.03;;;7.03;71.23
65718;BME280;52445;52.466;-1.016;2023-04-02T08:35:08;101205.13;;;7.07;71.87
65718;BME280;52445;52.466;-1.016;2023-04-02T08:37:36;101217.28;;;7.10;70.76
65718;BME280;52445;52.466;-1.016;2023-04-02T08:40:03;101215.59;;;7.12;71.84
65718;BME280;52445;52.466;-1.016;2023-04-02T08:42:39;101217.34;;;7.13;70.98
65718;BME280;52445;52.466;-1.016;2023-04-02T08:48:20;101220.09;;;7.19;70.63
65718;BME280;52445;52.466;-1.016;2023-04-02T08:50:49;101222.78;;;7.23;70.68
65718;BME280;52445;52.466;-1.016;2023-04-02T08:53:22;101223.75;;;7.26;70.11
65718;BME280;52445;52.466;-1.016;2023-04-02T09:01:05;101238.16;;;7.49;69.65
65718;BME280;52445;52.466;-1.016;2023-04-02T09:03:37;101233.41;;;7.63;69.68
65718;BME280;52445;52.466;-1.016;2023-04-02T09:06:09;101240.78;;;7.81;69.06
65718;BME280;52445;52.466;-1.016;2023-04-02T09:08:43;101236.69;;;8.21;68.31
65718;BME280;52445;52.466;-1.016;2023-04-02T09:13:58;101242.78;;;8.57;67.76
65718;BME280;52445;52.466;-1.016;2023-04-02T09:16:38;101248.44;;;8.78;67.50
65718;BME280;52445;52.466;-1.016;2023-04-02T09:19:14;101263.31;;;8.88;66.95
65718;BME280;52445;52.466;-1.016;2023-04-02T09:21:47;101248.59;;;8.85;65.92
65718;BME280;52445;52.466;-1.016;2023-04-02T09:24:18;101264.88;;;8.81;65.29
65718;BME280;52445;52.466;-1.016;2023-04-02T09:26:45;101263.09;;;8.79;65.48
65718;BME280;52445;52.466;-1.016;2023-04-02T09:31:54;101272.31;;;9.04;63.71
65718;BME280;52445;52.466;-1.016;2023-04-02T09:34:33;101274.56;;;8.90;64.85
65718;BME280;52445;52.466;-1.016;2023-04-02T09:37:19;101280.56;;;8.89;65.10
65718;BME280;52445;52.466;-1.016;2023-04-02T09:39:50;101282.91;;;9.55;66.00
65718;BME280;52445;52.466;-1.016;2023-04-02T09:42:34;101283.97;;;9.65;63.97
65718;BME280;52445;52.466;-1.016;2023-04-02T09:45:23;101287.41;;;9.64;64.09
65718;BME280;52445;52.466;-1.016;2023-04-02T09:47:51;101280.75;;;9.75;64.15
65718;BME280;52445;52.466;-1.016;2023-04-02T09:52:56;101283.31;;;10.20;62.57
65718;BME280;52445;52.466;-1.016;2023-04-02T09:58:11;101290.59;;;9.94;62.17
65718;BME280;52445;52.466;-1.016;2023-04-02T10:00:39;101295.56;;;9.83;62.70
65718;BME280;52445;52.466;-1.016;2023-04-02T10:03:34;101290.13;;;9.72;62.53
65718;BME280;52445;52.466;-1.016;2023-04-02T10:08:42;101296.84;;;9.62;62.42
65718;BME280;52445;52.466;-1.016;2023-04-02T10:13:53;101305.53;;;9.66;62.09
65718;BME280;52445;52.466;-1.016;2023-04-02T10:16:26;101306.53;;;9.72;62.48
65718;BME280;52445;52.466;-1.016;2023-04-02T10:19:05;101311.84;;;9.79;62.43
65718;BME280;52445;52.466;-1.016;2023-04-02T10:21:40;101306.22;;;9.98;61.70
65718;BME280;52445;52.466;-1.016;2023-04-02T10:24:13;101309.03;;;10.11;61.38
65718;BME280;52445;52.466;-1.016;2023-04-02T10:32:17;101328.19;;;10.19;61.88
65718;BME280;52445;52.466;-1.016;2023-04-02T10:40:04;101340.88;;;11.01;62.29
65718;BME280;52445;52.466;-1.016;2023-04-02T10:45:29;101350.59;;;11.75;60.21
65718;BME280;52445;52.466;-1.016;2023-04-02T10:51:00;101343.44;;;12.26;59.66
65718;BME280;52445;52.466;-1.016;2023-04-02T10:53:37;101350.28;;;12.18;58.08
65718;BME280;52445;52.466;-1.016;2023-04-02T10:56:10;101351.84;;;12.05;58.42
65718;BME280;52445;52.466;-1.016;2023-04-02T10:58:46;101356.94;;;11.97;57.98
65718;BME280;52445;52.466;-1.016;2023-04-02T11:01:20;101363.69;;;11.82;58.20
65718;BME280;52445;52.466;-1.016;2023-04-02T11:03:52;101356.69;;;11.78;58.08
65718;BME280;52445;52.466;-1.016;2023-04-02T11:06:27;101366.97;;;11.69;57.58
65718;BME280;52445;52.466;-1.016;2023-04-02T11:08:59;101365.25;;;11.71;58.35
65718;BME280;52445;52.466;-1.016;2023-04-02T11:11:33;101362.72;;;11.74;58.39
65718;BME280;52445;52.466;-1.016;2023-04-02T11:14:22;101357.53;;;11.76;58.08
65718;BME280;52445;52.466;-1.016;2023-04-02T11:16:50;101360.25;;;11.85;58.68
65718;BME280;52445;52.466;-1.016;2023-04-02T11:32:30;101356.00;;;11.93;56.92
65718;BME280;52445;52.466;-1.016;2023-04-02T11:35:00;101362.44;;;12.20;58.55
65718;BME280;52445;52.466;-1.016;2023-04-02T11:42:49;101379.50;;;12.76;55.04
65718;BME280;52445;52.466;-1.016;2023-04-02T11:50:39;101386.78;;;13.19;54.34
65718;BME280;52445;52.466;-1.016;2023-04-02T11:56:03;101391.25;;;13.39;53.96
65718;BME280;52445;52.466;-1.016;2023-04-02T12:09:34;101402.00;;;13.81;51.46
65718;BME280;52445;52.466;-1.016;2023-04-02T12:12:33;101407.09;;;13.67;51.89
65718;BME280;52445;52.466;-1.016;2023-04-02T12:15:02;101405.28;;;13.53;53.16
65718;BME280;52445;52.466;-1.016;2023-04-02T12:17:31;101417.25;;;13.35;52.40
65718;BME280;52445;52.466;-1.016;2023-04-02T12:20:03;101413.69;;;13.21;52.37
65718;BME280;52445;52.466;-1.016;2023-04-02T12:22:38;101429.16;;;13.08;52.82
65718;BME280;52445;52.466;-1.016;2023-04-02T12:28:15;101431.78;;;13.08;52.16
65718;BME280;52445;52.466;-1.016;2023-04-02T12:30:45;101434.38;;;13.08;52.80
65718;BME280;52445;52.466;-1.016;2023-04-02T12:35:59;101444.44;;;12.71;52.12
65718;BME280;52445;52.466;-1.016;2023-04-02T12:38:27;101440.84;;;12.59;53.35
65718;BME280;52445;52.466;-1.016;2023-04-02T12:43:34;101433.34;;;12.89;53.76
65718;BME280;52445;52.466;-1.016;2023-04-02T12:46:04;101444.56;;;12.83;52.39
65718;BME280;52445;52.466;-1.016;2023-04-02T12:48:33;101442.78;;;12.79;52.57
65718;BME280;52445;52.466;-1.016;2023-04-02T12:51:01;101437.66;;;12.85;53.17
65718;BME280;52445;52.466;-1.016;2023-04-02T12:53:34;101450.72;;;12.93;52.93
65718;BME280;52445;52.466;-1.016;2023-04-02T12:56:01;101451.72;;;13.06;52.78
65718;BME280;52445;52.466;-1.016;2023-04-02T12:58:34;101448.34;;;13.15;53.06
65718;BME280;52445;52.466;-1.016;2023-04-02T13:01:18;101462.25;;;13.20;51.88
65718;BME280;52445;52.466;-1.016;2023-04-02T13:06:48;101451.75;;;13.09;51.62
65718;BME280;52445;52.466;-1.016;2023-04-02T13:09:40;101457.66;;;12.94;51.76
65718;BME280;52445;52.466;-1.016;2023-04-02T13:12:33;101461.97;;;12.91;52.47
65718;BME280;52445;52.466;-1.016;2023-04-02T13:15:02;101456.69;;;12.84;51.99
65718;BME280;52445;52.466;-1.016;2023-04-02T13:23:32;101456.25;;;12.44;52.10
65718;BME280;52445;52.466;-1.016;2023-04-02T13:26:18;101449.41;;;12.52;52.29
65718;BME280;52445;52.466;-1.016;2023-04-02T13:29:09;101454.72;;;12.63;51.95
65718;BME280;52445;52.466;-1.016;2023-04-02T13:31:42;101459.91;;;12.62;51.96
65718;BME280;52445;52.466;-1.016;2023-04-02T13:34:09;101452.97;;;12.60;51.97
65718;BME280;52445;52.466;-1.016;2023-04-02T13:36:35;101446.75;;;12.44;51.50
65718;BME280;52445;52.466;-1.016;2023-04-02T13:39:03;101450.06;;;12.34;50.40
65718;BME280;52445;52.466;-1.016;2023-04-02T13:41:33;101450.13;;;12.39;51.65
65718;BME280;52445;52.466;-1.016;2023-04-02T13:44:02;101462.34;;;12.44;50.83
65718;BME280;52445;52.466;-1.016;2023-04-02T13:46:31;101459.91;;;12.62;52.55
65718;BME280;52445;52.466;-1.016;2023-04-02T13:48:58;101456.47;;;12.63;51.66
65718;BME280;52445;52.466;-1.016;2023-04-02T13:51:36;101449.50;;;12.62;50.28
65718;BME280;52445;52.466;-1.016;2023-04-02T13:54:08;101449.63;;;12.71;52.70
65718;BME280;52445;52.466;-1.016;2023-04-02T13:56:39;101443.72;;;12.86;51.71
65718;BME280;52445;52.466;-1.016;2023-04-02T13:59:06;101442.09;;;12.97;52.22
65718;BME280;52445;52.466;-1.016;2023-04-02T14:01:33;101449.91;;;12.99;51.40
65718;BME280;52445;52.466;-1.016;2023-04-02T14:04:01;101452.41;;;12.88;50.60
65718;BME280;52445;52.466;-1.016;2023-04-02T14:17:51;101441.25;;;13.00;49.27
65718;BME280;52445;52.466;-1.016;2023-04-02T14:31:36;101445.50;;;12.92;49.47
65718;BME280;52445;52.466;-1.016;2023-04-02T14:42:21;101445.16;;;12.60;48.59
65718;BME280;52445;52.466;-1.016;2023-04-02T14:44:56;101446.13;;;12.69;49.60
65718;BME280;52445;52.466;-1.016;2023-04-02T14:47:32;101448.81;;;12.77;50.77
65718;BME280;52445;52.466;-1.016;2023-04-02T14:50:08;101452.16;;;12.66;49.51
65718;BME280;52445;52.466;-1.016;2023-04-02T14:52:38;101455.47;;;12.51;49.58
65718;BME280;52445;52.466;-1.016;2023-04-02T14:55:25;101458.75;;;12.38;48.73
65718;BME280;52445;52.466;-1.016;2023-04-02T14:57:54;101444.06;;;12.40;49.45
65718;BME280;52445;52.466;-1.016;2023-04-02T15:03:10;101434.13;;;12.80;48.39
65718;BME280;52445;52.466;-1.016;2023-04-02T15:08:51;101443.53;;;12.70;49.60
65718;BME280;52445;52.466;-1.016;2023-04-02T15:11:37;101447.09;;;12.79;50.64
65718;BME280;52445;52.466;-1.016;2023-04-02T15:16:50;101441.75;;;12.66;51.20
65718;BME280;52445;52.466;-1.016;2023-04-02T15:19:18;101449.38;;;12.51;49.75
65718;BME280;52445;52.466;-1.016;2023-04-02T15:29:57;101456.47;;;12.63;50.04
65718;BME280;52445;52.466;-1.016;2023-04-02T15:32:37;101458.16;;;12.60;49.79
65718;BME280;52445;52.466;-1.016;2023-04-02T16:10:44;101485.44;;;12.24;50.24
65718;BME280;52445;52.466;-1.016;2023-04-02T16:15:52;101475.56;;;12.00;50.25
65718;BME280;52445;52.466;-1.016;2023-04-02T16:21:21;101481.19;;;11.72;50.21
65718;BME280;52445;52.466;-1.016;2023-04-02T16:23:49;101485.53;;;11.72;51.43
65718;BME280;52445;52.466;-1.016;2023-04-02T16:29:06;101482.84;;;11.67;51.44
65718;BME280;52445;52.466;-1.016;2023-04-02T16:31:44;101487.16;;;11.65;51.09
65718;BME280;52445;52.466;-1.016;2023-04-02T17:06:40;101522.13;;;10.90;52.87
65718;BME280;52445;52.466;-1.016;2023-04-02T17:09:20;101515.94;;;10.82;52.25
65718;BME280;52445;52.466;-1.016;2023-04-02T17:11:53;101521.19;;;10.85;52.84
65718;BME280;52445;52.466;-1.016;2023-04-02T17:17:01;101523.28;;;10.60;52.72
65718;BME280;52445;52.466;-1.016;2023-04-02T17:19:29;101524.03;;;10.54;52.48
65718;BME280;52445;52.466;-1.016;2023-04-02T17:22:00;101526.47;;;10.48;52.74
65718;BME280;52445;52.466;-1.016;2023-04-02T17:24:31;101534.09;;;10.43;52.81
65718;BME280;52445;52.466;-1.016;2023-04-02T17:27:14;101538.28;;;10.36;53.52
65718;BME280;52445;52.466;-1.016;2023-04-02T17:29:44;101538.25;;;10.35;53.86
65718;BME280;52445;52.466;-1.016;2023-04-02T17:32:18;101541.53;;;10.27;53.71
65718;BME280;52445;52.466;-1.016;2023-04-02T17:34:47;101550.94;;;10.22;53.90
65718;BME280;52445;52.466;-1.016;2023-04-02T17:43:18;101570.91;;;9.91;53.64
65718;BME280;52445;52.466;-1.016;2023-04-02T17:45:51;101569.16;;;9.90;53.92
65718;BME280;52445;52.466;-1.016;2023-04-02T17:51:23;101569.22;;;9.58;53.60
65718;BME280;52445;52.466;-1.016;2023-04-02T17:54:08;101576.13;;;9.57;54.38
65718;BME280;52445;52.466;-1.016;2023-04-02T18:02:13;101576.25;;;9.30;54.51
65718;BME280;52445;52.466;-1.016;2023-04-02T18:04:52;101590.63;;;9.20;54.34
65718;BME280;52445;52.466;-1.016;2023-04-02T18:10:28;101599.50;;;8.97;55.21
65718;BME280;52445;52.466;-1.016;2023-04-02T18:21:32;101611.56;;;8.68;55.08
65718;BME280;52445;52.466;-1.016;2023-04-02T18:41:09;101636.28;;;8.61;54.75
65718;BME280;52445;52.466;-1.016;2023-04-02T18:43:58;101637.47;;;8.17;55.94
65718;BME280;52445;52.466;-1.016;2023-04-02T18:49:34;101640.88;;;7.90;56.67
65718;BME280;52445;52.466;-1.016;2023-04-02T18:52:10;101640.69;;;7.84;56.82
65718;BME280;52445;52.466;-1.016;2023-04-02T18:57:23;101651.22;;;7.66;56.07
65718;BME280;52445;52.466;-1.016;2023-04-02T18:59:59;101650.16;;;7.59;56.38
65718;BME280;52445;52.466;-1.016;2023-04-02T19:05:16;101653.00;;;7.42;56.69
65718;BME280;52445;52.466;-1.016;2023-04-02T19:07:47;101654.56;;;7.37;57.95
65718;BME280;52445;52.466;-1.016;2023-04-02T19:10:32;101655.50;;;7.16;58.04
65718;BME280;52445;52.466;-1.016;2023-04-02T19:12:59;101653.75;;;7.15;57.57
65718;BME280;52445;52.466;-1.016;2023-04-02T19:15:40;101663.00;;;7.10;56.83
65718;BME280;52445;52.466;-1.016;2023-04-02T19:18:18;101657.75;;;7.07;56.90
65718;BME280;52445;52.466;-1.016;2023-04-02T19:20:55;101663.47;;;7.00;56.65
65718;BME280;52445;52.466;-1.016;2023-04-02T19:23:36;101666.38;;;6.86;57.13
65718;BME280;52445;52.466;-1.016;2023-04-02T19:26:08;101669.78;;;6.85;57.05
65718;BME280;52445;52.466;-1.016;2023-04-02T19:29:01;101658.06;;;6.71;57.80
65718;BME280;52445;52.466;-1.016;2023-04-02T19:34:19;101675.84;;;6.64;57.42
65718;BME280;52445;52.466;-1.016;2023-04-02T19:36:52;101675.72;;;6.61;57.38
65718;BME280;52445;52.466;-1.016;2023-04-02T19:42:21;101687.16;;;6.47;58.37
65718;BME280;52445;52.466;-1.016;2023-04-02T19:44:51;101693.97;;;6.45;57.91
65718;BME280;52445;52.466;-1.016;2023-04-02T19:47:19;101691.94;;;6.37;59.55
65718;BME280;52445;52.466;-1.016;2023-04-02T19:49:46;101698.72;;;6.35;59.22
65718;BME280;52445;52.466;-1.016;2023-04-02T19:52:13;101701.97;;;6.31;58.46